Bunker Hill, Illinois
Current Conditions -  °F | °C
As of 7:50 PM on Thursday 20 Nov 2014 (Local Time) from KALN Reporting Station
Clear Clear  
Wind Chill: 19°   Ceiling: Unl
Heat Index: 27°   Visibility: 10mi
Dew Point: 16°   Wind: 7mph
Humidity: 64%   Direction: 280°W
Pressure: 30.29"   Gusts: NA
Location:  39.04°N, 89.95°W
Report Text: KALN 210150Z 28006KT 10SM SKC M03/M09 A3029
Loading
Personal Weather Stations






























Interactive Weather Map New forecast layout! Learn more

10-Day Weather Forecast

Advertisements
Track Severe Weather on mobile